Time;durP1;ratioP1;P1;durP2;ratioP2;P2;SDS_P1;SDS_P2;PMS_P1;PMS_P2;Temp;Humidity;BMP_temperature;BMP_pressure;BME280_temperature;BME280_humidity;BME280_pressure;Samples;Min_cycle;Max_cycle;Signal;HPM_P1;HPM_P2
2022/09/07 00:00:52;;;;;;;;;;;;;;;16.16;100.00;101241.69;5324936;27;20010;-78
2022/09/07 00:03:23;;;;;;;;;;;;;;;16.11;100.00;101254.00;5325219;27;20284;-78
2022/09/07 00:05:54;;;;;;;;;;;;;;;16.08;100.00;101252.50;5317441;27;20423;-78
2022/09/07 00:08:26;;;;;;;;;;;;;;;16.01;100.00;101246.94;5321080;27;20019;-78
2022/09/07 00:10:58;;;;;;;;;;;;;;;15.93;100.00;101230.78;5333935;27;19919;-78
2022/09/07 00:13:31;;;;;;;;;;;;;;;15.92;100.00;101229.13;5328290;27;20368;-78
2022/09/07 00:16:07;;;;;;;;;;;;;;;15.87;100.00;101212.66;5326310;27;19920;-78
2022/09/07 00:18:39;;;;;;;;;;;;;;;15.81;100.00;101208.78;5322020;27;19932;-78
2022/09/07 00:21:10;;;;;;;;;;;;;;;15.73;100.00;101227.56;5325987;27;19982;-78
2022/09/07 00:23:42;;;;;;;;;;;;;;;15.63;100.00;101225.03;5328363;27;19912;-78
2022/09/07 00:26:15;;;;;;;;;;;;;;;15.55;100.00;101221.47;5319280;27;19982;-78
2022/09/07 00:28:47;;;;;;;;;;;;;;;15.45;100.00;101225.19;5329646;27;19992;-78
2022/09/07 00:31:19;;;;;;;;;;;;;;;15.39;100.00;101217.78;5321524;27;19927;-78
2022/09/07 00:33:51;;;;;;;;;;;;;;;15.35;100.00;101216.41;5323125;27;19916;-78
2022/09/07 00:36:23;;;;;;;;;;;;;;;15.29;100.00;101219.78;5317260;27;19919;-77
2022/09/07 00:38:54;;;;;;;;;;;;;;;15.25;100.00;101216.56;5321103;27;20020;-78
2022/09/07 00:41:26;;;;;;;;;;;;;;;15.22;100.00;101211.53;5324745;27;20377;-77
2022/09/07 00:43:58;;;;;;;;;;;;;;;15.20;100.00;101207.28;5326743;27;20418;-77
2022/09/07 00:46:33;;;;;;;;;;;;;;;15.17;100.00;101194.22;5320082;27;19916;-77
2022/09/07 00:49:09;;;;;;;;;;;;;;;15.13;100.00;101182.97;5321687;27;19927;-77
2022/09/07 00:51:49;;;;;;;;;;;;;;;15.12;100.00;101184.78;5332454;27;19929;-77
2022/09/07 00:54:23;;;;;;;;;;;;;;;15.11;100.00;101177.75;5318425;27;19960;-78
2022/09/07 00:56:54;;;;;;;;;;;;;;;15.10;100.00;101173.38;5321378;27;20399;-77
2022/09/07 00:59:27;;;;;;;;;;;;;;;15.06;100.00;101172.03;5321541;27;19916;-77
2022/09/07 01:01:59;;;;;;;;;;;;;;;15.05;100.00;101164.94;5350322;27;20298;-78
2022/09/07 01:04:31;;;;;;;;;;;;;;;15.06;100.00;101173.84;5319894;27;19934;-77
2022/09/07 01:07:02;;;;;;;;;;;;;;;15.00;100.00;101185.25;5321060;27;19916;-78
2022/09/07 01:09:34;;;;;;;;;;;;;;;14.97;100.00;101178.38;5320428;27;19920;-77
2022/09/07 01:12:06;;;;;;;;;;;;;;;14.93;100.00;101171.63;5320685;27;19916;-77
2022/09/07 01:14:42;;;;;;;;;;;;;;;14.93;100.00;101174.31;5319976;27;20307;-77
2022/09/07 01:17:19;;;;;;;;;;;;;;;14.91;100.00;101173.66;5320480;27;19924;-77
2022/09/07 01:20:09;;;;;;;;;;;;;;;14.90;100.00;101178.19;5320374;27;19920;-77
2022/09/07 01:22:59;;;;;;;;;;;;;;;14.91;100.00;101181.69;5321554;27;20053;-79
2022/09/07 01:25:49;;;;;;;;;;;;;;;14.94;100.00;101190.28;5319167;27;19982;-79
2022/09/07 01:28:25;;;;;;;;;;;;;;;14.97;100.00;101182.88;5318701;27;19916;-79
2022/09/07 01:30:58;;;;;;;;;;;;;;;14.94;100.00;101184.91;5318503;27;20427;-79
2022/09/07 01:33:48;;;;;;;;;;;;;;;14.90;100.00;101196.13;5320985;28;19954;-79
2022/09/07 01:36:34;;;;;;;;;;;;;;;14.92;100.00;101186.09;5320153;27;20475;-79
2022/09/07 01:39:05;;;;;;;;;;;;;;;14.96;100.00;101181.22;5320988;27;19917;-79
2022/09/07 01:41:49;;;;;;;;;;;;;;;14.98;100.00;101181.91;5319796;27;19947;-79
2022/09/07 01:44:23;;;;;;;;;;;;;;;14.96;100.00;101190.13;5316877;27;19920;-78
2022/09/07 01:47:04;;;;;;;;;;;;;;;14.96;100.00;101181.22;5318660;27;19950;-78
2022/09/07 01:49:39;;;;;;;;;;;;;;;14.95;100.00;101183.06;5320568;27;19926;-79
2022/09/07 01:52:24;;;;;;;;;;;;;;;14.94;100.00;101173.31;5316168;27;20493;-78
2022/09/07 01:55:14;;;;;;;;;;;;;;;14.89;100.00;101176.50;5318621;28;20354;-78
2022/09/07 01:57:50;;;;;;;;;;;;;;;14.85;100.00;101191.25;5329478;27;19916;-78
2022/09/07 02:00:21;;;;;;;;;;;;;;;14.83;100.00;101184.34;5321498;27;19916;-78
2022/09/07 02:02:57;;;;;;;;;;;;;;;14.81;100.00;101189.88;5323520;27;19973;-78
2022/09/07 02:05:46;;;;;;;;;;;;;;;14.80;100.00;101192.75;5314945;27;19959;-78
2022/09/07 02:08:23;;;;;;;;;;;;;;;14.82;100.00;101180.84;5315463;27;19916;-78
2022/09/07 02:11:01;;;;;;;;;;;;;;;14.84;100.00;101180.69;5319314;27;20287;-78
2022/09/07 02:13:35;;;;;;;;;;;;;;;14.80;100.00;101176.63;5319297;27;20704;-79
2022/09/07 02:16:18;;;;;;;;;;;;;;;14.77;100.00;101183.16;5317764;27;19920;-78
2022/09/07 02:18:52;;;;;;;;;;;;;;;14.77;100.00;101185.84;5329092;27;19931;-79
2022/09/07 02:21:32;;;;;;;;;;;;;;;14.74;100.00;101184.34;5320101;27;19931;-78
2022/09/07 02:24:07;;;;;;;;;;;;;;;14.74;100.00;101181.66;5319422;27;19930;-78
2022/09/07 02:26:39;;;;;;;;;;;;;;;14.74;100.00;101188.84;5320550;28;19924;-78
2022/09/07 02:29:10;;;;;;;;;;;;;;;14.75;100.00;101183.31;5319686;27;19965;-78
2022/09/07 02:31:41;;;;;;;;;;;;;;;14.73;100.00;101187.19;5313627;28;19920;-78
2022/09/07 02:34:13;;;;;;;;;;;;;;;14.72;100.00;101190.84;5319947;27;20236;-78
2022/09/07 02:36:45;;;;;;;;;;;;;;;14.68;100.00;101187.66;5318759;28;20114;-78
2022/09/07 02:39:17;;;;;;;;;;;;;;;14.67;100.00;101187.81;5327997;27;19923;-78
2022/09/07 02:41:48;;;;;;;;;;;;;;;14.64;100.00;101182.75;5321251;28;20608;-78
2022/09/07 02:44:21;;;;;;;;;;;;;;;14.70;100.00;101184.81;5318830;27;19920;-78
2022/09/07 02:47:00;;;;;;;;;;;;;;;14.74;100.00;101189.72;5319201;27;19960;-78
2022/09/07 02:49:52;;;;;;;;;;;;;;;14.73;100.00;101189.88;5318700;27;20368;-78
2022/09/07 02:52:42;;;;;;;;;;;;;;;14.68;100.00;101178.75;5319186;27;19924;-78
2022/09/07 02:55:39;;;;;;;;;;;;;;;14.60;100.00;101178.72;5314257;28;19943;-79
2022/09/07 02:58:13;;;;;;;;;;;;;;;14.57;100.00;101175.31;5303681;27;20388;-78
2022/09/07 03:00:57;;;;;;;;;;;;;;;14.61;100.00;101185.78;5319646;27;19927;-78
2022/09/07 03:03:36;;;;;;;;;;;;;;;14.60;100.00;101190.28;5320292;27;19920;-78
2022/09/07 03:06:12;;;;;;;;;;;;;;;14.65;100.00;101204.06;5316772;27;19928;-78
2022/09/07 03:08:46;;;;;;;;;;;;;;;14.67;100.00;101196.72;5318003;27;20007;-79
2022/09/07 03:11:18;;;;;;;;;;;;;;;14.77;100.00;101193.91;5316980;27;19924;-78
2022/09/07 03:13:49;;;;;;;;;;;;;;;14.87;100.00;101191.94;5320270;27;19939;-78
2022/09/07 03:16:20;;;;;;;;;;;;;;;14.95;100.00;101196.47;5317211;27;19949;-79
2022/09/07 03:18:52;;;;;;;;;;;;;;;14.99;100.00;101189.78;5317900;27;19930;-78
2022/09/07 03:21:23;;;;;;;;;;;;;;;15.05;100.00;101173.00;5322232;27;19927;-78
2022/09/07 03:23:54;;;;;;;;;;;;;;;15.05;100.00;101175.69;5320110;27;19924;-78
2022/09/07 03:26:25;;;;;;;;;;;;;;;15.05;100.00;101172.19;5323697;27;20319;-78
2022/09/07 03:28:56;;;;;;;;;;;;;;;15.03;100.00;101179.56;5320137;27;19919;-78
2022/09/07 03:31:30;;;;;;;;;;;;;;;15.05;100.00;101189.13;5323599;27;19958;-78
2022/09/07 03:34:02;;;;;;;;;;;;;;;15.09;100.00;101197.69;5321298;27;19923;-78
2022/09/07 03:36:33;;;;;;;;;;;;;;;15.10;100.00;101181.44;5322676;27;19920;-78
2022/09/07 03:39:06;;;;;;;;;;;;;;;15.15;100.00;101180.06;5317897;27;19928;-78
2022/09/07 03:41:37;;;;;;;;;;;;;;;15.19;100.00;101178.78;5322671;28;19924;-79
2022/09/07 03:44:08;;;;;;;;;;;;;;;15.20;100.00;101183.13;5323593;27;19924;-79
2022/09/07 03:46:40;;;;;;;;;;;;;;;15.18;100.00;101194.06;5322158;27;19997;-78
2022/09/07 03:49:11;;;;;;;;;;;;;;;15.18;100.00;101194.06;5323266;27;19959;-78
2022/09/07 03:51:42;;;;;;;;;;;;;;;15.19;100.00;101194.88;5356655;27;19926;-78
2022/09/07 03:54:13;;;;;;;;;;;;;;;15.19;100.00;101186.81;5322647;27;19916;-78
2022/09/07 03:56:44;;;;;;;;;;;;;;;15.18;100.00;101175.25;5322846;27;19920;-78
2022/09/07 03:59:16;;;;;;;;;;;;;;;15.18;100.00;101177.06;5321257;27;19916;-78
2022/09/07 04:01:47;;;;;;;;;;;;;;;15.13;100.00;101164.97;5325407;27;19919;-78
2022/09/07 04:04:18;;;;;;;;;;;;;;;15.14;100.00;101160.44;5320860;27;19935;-78
2022/09/07 04:06:49;;;;;;;;;;;;;;;15.18;100.00;101164.50;5321640;27;20074;-78
2022/09/07 04:09:21;;;;;;;;;;;;;;;15.15;100.00;101148.69;5321028;27;19916;-78
2022/09/07 04:11:52;;;;;;;;;;;;;;;15.13;100.00;101146.19;5328932;27;19978;-79
2022/09/07 04:14:23;;;;;;;;;;;;;;;15.10;100.00;101146.50;5320181;27;20098;-78
2022/09/07 04:16:55;;;;;;;;;;;;;;;15.10;100.00;101137.59;5317624;27;19916;-78
2022/09/07 04:19:26;;;;;;;;;;;;;;;15.06;100.00;101139.78;5318903;27;20015;-79
2022/09/07 04:21:57;;;;;;;;;;;;;;;15.07;100.00;101135.25;5321248;27;19966;-78
2022/09/07 04:24:28;;;;;;;;;;;;;;;15.06;100.00;101130.84;5320074;27;19920;-78
2022/09/07 04:27:00;;;;;;;;;;;;;;;15.01;100.00;101133.22;5325482;27;20288;-78
2022/09/07 04:29:32;;;;;;;;;;;;;;;15.02;100.00;101149.16;5320538;27;19916;-78
2022/09/07 04:32:03;;;;;;;;;;;;;;;14.97;100.00;101159.56;5322695;28;19920;-78
2022/09/07 04:34:34;;;;;;;;;;;;;;;14.94;100.00;101165.28;5320148;27;19920;-78
2022/09/07 04:37:05;;;;;;;;;;;;;;;14.86;100.00;101158.00;5316918;27;19920;-78
2022/09/07 04:39:37;;;;;;;;;;;;;;;14.86;100.00;101166.06;5321408;27;19919;-78
2022/09/07 04:42:08;;;;;;;;;;;;;;;14.86;100.00;101160.69;5322484;28;19932;-78
2022/09/07 04:44:39;;;;;;;;;;;;;;;14.85;100.00;101155.47;5319705;27;19931;-78
2022/09/07 04:47:11;;;;;;;;;;;;;;;14.85;100.00;101156.34;5321194;27;19947;-78
2022/09/07 04:49:42;;;;;;;;;;;;;;;14.96;100.00;101165.13;5322342;27;21130;-78
2022/09/07 04:52:13;;;;;;;;;;;;;;;15.00;100.00;101158.41;5321213;28;19931;-79
2022/09/07 04:54:47;;;;;;;;;;;;;;;15.03;100.00;101150.03;5318113;27;19971;-78
2022/09/07 04:57:23;;;;;;;;;;;;;;;15.06;100.00;101155.03;5322836;27;19956;-78
2022/09/07 04:59:54;;;;;;;;;;;;;;;15.08;100.00;101151.19;5322711;27;19924;-79
2022/09/07 05:02:25;;;;;;;;;;;;;;;15.14;100.00;101163.13;5323841;27;19915;-78
2022/09/07 05:04:56;;;;;;;;;;;;;;;15.18;100.00;101158.25;5314754;27;19919;-78
2022/09/07 05:07:27;;;;;;;;;;;;;;;15.19;100.00;101152.72;5319179;27;20390;-78
2022/09/07 05:09:59;;;;;;;;;;;;;;;15.22;100.00;101147.03;5321382;27;19920;-78
2022/09/07 05:12:30;;;;;;;;;;;;;;;15.23;100.00;101143.31;5319461;27;20006;-78
2022/09/07 05:15:01;;;;;;;;;;;;;;;15.23;100.00;101134.44;5318146;27;19973;-78
2022/09/07 05:17:33;;;;;;;;;;;;;;;15.20;100.00;101141.00;5313819;28;19956;-79
2022/09/07 05:20:04;;;;;;;;;;;;;;;15.18;100.00;101151.06;5319881;27;19969;-78
2022/09/07 05:22:39;;;;;;;;;;;;;;;15.10;100.00;101149.19;5328990;27;19912;-78
2022/09/07 05:25:11;;;;;;;;;;;;;;;15.11;100.00;101161.63;5318413;27;19931;-78
2022/09/07 05:27:42;;;;;;;;;;;;;;;15.17;100.00;101151.22;5321817;27;19924;-78
2022/09/07 05:30:13;;;;;;;;;;;;;;;15.21;100.00;101152.56;5323711;27;19951;-78
2022/09/07 05:32:45;;;;;;;;;;;;;;;15.27;100.00;101150.06;5321360;27;20285;-79
2022/09/07 05:35:17;;;;;;;;;;;;;;;15.29;100.00;101152.59;5320673;27;20053;-77
2022/09/07 05:37:49;;;;;;;;;;;;;;;15.40;100.00;101154.09;5320755;27;19963;-78
2022/09/07 05:40:21;;;;;;;;;;;;;;;15.45;100.00;101152.59;5322398;27;20356;-77
2022/09/07 05:42:52;;;;;;;;;;;;;;;15.57;100.00;101163.00;5326110;27;19967;-78
2022/09/07 05:45:23;;;;;;;;;;;;;;;15.67;100.00;101156.47;5326218;27;19920;-78
2022/09/07 05:47:55;;;;;;;;;;;;;;;15.66;100.00;101156.66;5330451;27;19924;-77
2022/09/07 05:50:26;;;;;;;;;;;;;;;15.62;100.00;101157.97;5315450;27;21353;-78
2022/09/07 05:52:57;;;;;;;;;;;;;;;15.60;100.00;101155.47;5324123;27;19923;-77
2022/09/07 05:55:31;;;;;;;;;;;;;;;15.72;100.00;101155.13;5323150;27;20431;-78
2022/09/07 05:58:03;;;;;;;;;;;;;;;15.76;100.00;101162.72;5318982;27;19916;-78
2022/09/07 06:00:34;;;;;;;;;;;;;;;15.81;100.00;101173.81;5317028;27;19923;-77
2022/09/07 06:03:06;;;;;;;;;;;;;;;15.79;100.00;101183.88;5323561;27;19920;-77
2022/09/07 06:05:37;;;;;;;;;;;;;;;15.78;100.00;101179.53;5349217;27;19936;-78
2022/09/07 06:08:08;;;;;;;;;;;;;;;15.78;100.00;101187.59;5322254;27;19928;-77
2022/09/07 06:10:39;;;;;;;;;;;;;;;15.81;100.00;101181.88;5317700;27;19970;-78
2022/09/07 06:13:10;;;;;;;;;;;;;;;15.84;100.00;101181.53;5323959;28;20346;-78
2022/09/07 06:15:41;;;;;;;;;;;;;;;15.85;100.00;101185.09;5326324;27;19923;-78
2022/09/07 06:18:13;;;;;;;;;;;;;;;15.91;100.00;101186.25;5318703;27;19920;-78
2022/09/07 06:20:44;;;;;;;;;;;;;;;15.90;100.00;101180.03;5320956;27;19950;-78
2022/09/07 06:23:15;;;;;;;;;;;;;;;16.03;100.00;101180.34;5322036;28;20261;-78
2022/09/07 06:25:47;;;;;;;;;;;;;;;16.13;100.00;101190.06;5321665;28;19928;-79
2022/09/07 06:28:19;;;;;;;;;;;;;;;16.20;100.00;101189.25;5319826;28;20367;-79
2022/09/07 06:30:50;;;;;;;;;;;;;;;16.38;100.00;101194.41;5322112;27;19939;-78
2022/09/07 06:33:21;;;;;;;;;;;;;;;16.49;100.00;101195.91;5318505;27;19916;-79
2022/09/07 06:35:54;;;;;;;;;;;;;;;16.44;100.00;101196.44;5318154;27;19920;-78
2022/09/07 06:38:33;;;;;;;;;;;;;;;16.44;100.00;101203.66;5321783;28;20346;-79
2022/09/07 06:41:07;;;;;;;;;;;;;;;16.45;100.00;101203.47;5321695;27;19920;-79
2022/09/07 06:43:38;;;;;;;;;;;;;;;16.54;100.00;101198.91;5320981;27;19928;-78
2022/09/07 06:46:10;;;;;;;;;;;;;;;16.57;100.00;101203.97;5321051;28;19943;-78
2022/09/07 06:48:41;;;;;;;;;;;;;;;16.69;100.00;101204.44;5319634;27;19916;-78
2022/09/07 06:51:14;;;;;;;;;;;;;;;16.86;100.00;101199.00;5323142;27;19970;-78
2022/09/07 06:53:46;;;;;;;;;;;;;;;17.08;100.00;101200.09;5318469;27;19923;-78
2022/09/07 06:56:18;;;;;;;;;;;;;;;17.27;100.00;101210.41;5303990;28;19924;-79
2022/09/07 06:58:53;;;;;;;;;;;;;;;17.35;100.00;101201.44;5337700;27;19922;-78
2022/09/07 07:01:25;;;;;;;;;;;;;;;17.56;100.00;101215.09;5316048;27;19939;-79
2022/09/07 07:03:56;;;;;;;;;;;;;;;17.81;100.00;101206.84;5329469;27;19913;-78
2022/09/07 07:06:34;;;;;;;;;;;;;;;17.81;100.00;101212.25;5329057;27;19963;-79
2022/09/07 07:09:07;;;;;;;;;;;;;;;17.95;100.00;101206.06;5329112;27;20441;-79
2022/09/07 07:11:38;;;;;;;;;;;;;;;18.31;100.00;101209.94;5329175;27;19918;-78
2022/09/07 07:14:12;;;;;;;;;;;;;;;18.47;100.00;101215.16;5327783;28;20283;-79
2022/09/07 07:16:44;;;;;;;;;;;;;;;18.38;100.00;101216.28;5328935;27;19984;-79
2022/09/07 07:19:15;;;;;;;;;;;;;;;18.70;100.00;101206.13;5328621;27;20384;-79
2022/09/07 07:21:46;;;;;;;;;;;;;;;18.98;100.00;101219.84;5327200;27;20412;-79
2022/09/07 07:24:18;;;;;;;;;;;;;;;19.19;100.00;101210.94;5328798;27;20311;-79
2022/09/07 07:26:49;;;;;;;;;;;;;;;19.54;100.00;101207.56;5327232;27;19912;-79
2022/09/07 07:29:20;;;;;;;;;;;;;;;19.85;100.00;101215.41;5329094;27;20364;-79
2022/09/07 07:31:51;;;;;;;;;;;;;;;20.38;100.00;101209.53;5328930;27;19912;-80
2022/09/07 07:34:22;;;;;;;;;;;;;;;20.85;100.00;101215.28;5328407;27;19920;-79
2022/09/07 07:36:54;;;;;;;;;;;;;;;20.93;100.00;101215.94;5327035;28;19916;-79
2022/09/07 07:39:25;;;;;;;;;;;;;;;20.20;100.00;101215.47;5328907;28;20291;-79
2022/09/07 07:41:56;;;;;;;;;;;;;;;19.63;100.00;101219.94;5327176;27;20222;-79
2022/09/07 07:44:27;;;;;;;;;;;;;;;19.55;100.00;101220.91;5323117;27;20042;-79
2022/09/07 07:46:58;;;;;;;;;;;;;;;20.03;100.00;101217.63;5307444;27;19920;-79
2022/09/07 07:49:30;;;;;;;;;;;;;;;20.46;100.00;101216.66;5325178;27;20384;-79
2022/09/07 07:52:01;;;;;;;;;;;;;;;20.68;100.00;101212.03;5328544;27;19916;-79
2022/09/07 07:54:35;;;;;;;;;;;;;;;20.85;100.00;101218.81;5328312;27;20348;-79
2022/09/07 07:57:06;;;;;;;;;;;;;;;21.42;100.00;101224.84;5328050;27;20304;-79
2022/09/07 07:59:38;;;;;;;;;;;;;;;21.95;100.00;101212.41;5328195;27;19920;-77
2022/09/07 08:02:13;;;;;;;;;;;;;;;22.03;100.00;101226.63;5327927;27;19947;-78
2022/09/07 08:04:44;;;;;;;;;;;;;;;21.83;100.00;101223.91;5327389;27;20014;-78
2022/09/07 08:07:15;;;;;;;;;;;;;;;21.89;100.00;101214.91;5328192;27;20003;-78
2022/09/07 08:09:47;;;;;;;;;;;;;;;22.44;100.00;101216.56;5326962;28;19912;-78
2022/09/07 08:12:19;;;;;;;;;;;;;;;22.77;100.00;101219.22;5327676;27;19920;-79
2022/09/07 08:14:50;;;;;;;;;;;;;;;23.40;100.00;101228.59;5328008;27;19912;-79
2022/09/07 08:17:21;;;;;;;;;;;;;;;24.27;100.00;101220.63;5327943;27;19999;-79
2022/09/07 08:19:54;;;;;;;;;;;;;;;24.42;100.00;101223.00;5328526;27;20747;-79
2022/09/07 08:22:25;;;;;;;;;;;;;;;24.31;100.00;101224.56;5327554;28;19919;-79
2022/09/07 08:24:57;;;;;;;;;;;;;;;24.42;100.00;101223.00;5327629;27;20291;-79
2022/09/07 08:27:28;;;;;;;;;;;;;;;24.85;100.00;101227.56;5327371;27;20081;-79
2022/09/07 08:29:59;;;;;;;;;;;;;;;25.54;100.00;101224.59;5326550;28;19954;-79
2022/09/07 08:32:30;;;;;;;;;;;;;;;26.08;100.00;101223.78;5326721;27;19958;-79
2022/09/07 08:35:02;;;;;;;;;;;;;;;26.12;100.00;101227.69;5329015;27;19919;-78
2022/09/07 08:37:33;;;;;;;;;;;;;;;26.45;100.00;101224.34;5326965;27;19959;-79
2022/09/07 08:40:04;;;;;;;;;;;;;;;26.10;100.00;101224.38;5327684;28;20423;-79
2022/09/07 08:42:42;;;;;;;;;;;;;;;26.36;100.00;101231.25;5325714;27;19963;-79
2022/09/07 08:45:17;;;;;;;;;;;;;;;26.88;100.00;101234.06;5327403;28;19923;-79
2022/09/07 08:47:49;;;;;;;;;;;;;;;27.48;100.00;101230.06;5327552;27;19920;-79
2022/09/07 08:50:28;;;;;;;;;;;;;;;27.80;100.00;101231.44;5327470;27;19913;-79
2022/09/07 08:53:07;;;;;;;;;;;;;;;28.26;100.00;101230.28;5326812;27;19966;-79
2022/09/07 08:55:39;;;;;;;;;;;;;;;28.50;100.00;101232.81;5327268;27;20059;-79
2022/09/07 08:58:11;;;;;;;;;;;;;;;29.06;100.00;101238.22;5327493;27;19967;-79
2022/09/07 09:00:42;;;;;;;;;;;;;;;29.65;100.00;101231.19;5327189;27;19919;-79
2022/09/07 09:03:19;;;;;;;;;;;;;;;29.81;100.00;101226.69;5327111;27;19923;-79
2022/09/07 09:06:09;;;;;;;;;;;;;;;29.58;100.00;101236.88;5326949;27;19966;-79
2022/09/07 09:08:48;;;;;;;;;;;;;;;29.81;100.00;101233.00;5326974;28;19973;-79
2022/09/07 09:11:31;;;;;;;;;;;;;;;29.04;100.00;101235.72;5326909;28;19920;-79
2022/09/07 09:14:08;;;;;;;;;;;;;;;28.03;100.00;101249.66;5325062;27;19919;-78
2022/09/07 09:16:49;;;;;;;;;;;;;;;28.03;100.00;101233.22;5326877;27;19924;-78
2022/09/07 09:19:26;;;;;;;;;;;;;;;28.74;100.00;101229.88;5312735;27;19912;-77
2022/09/07 09:22:07;;;;;;;;;;;;;;;29.76;100.00;101231.03;5305922;28;19970;-78
2022/09/07 09:24:44;;;;;;;;;;;;;;;30.50;100.00;101229.34;5337438;27;20456;-78
2022/09/07 09:27:15;;;;;;;;;;;;;;;30.15;100.00;101230.78;5305505;28;19913;-77
2022/09/07 09:29:46;;;;;;;;;;;;;;;30.16;100.00;101237.13;5304956;28;19919;-78
2022/09/07 09:32:35;;;;;;;;;;;;;;;30.86;100.00;101231.47;5305423;28;19920;-79
2022/09/07 09:35:15;;;;;;;;;;;;;;;32.10;98.46;101238.06;5316267;27;19919;-78
2022/09/07 09:37:46;;;;;;;;;;;;;;;32.64;85.18;101233.81;5326037;27;20392;-79
2022/09/07 09:40:22;;;;;;;;;;;;;;;32.95;79.98;101227.06;5326222;27;19916;-79
2022/09/07 09:43:26;;;;;;;;;;;;;;;33.15;88.75;101233.59;5324929;28;19923;-79
2022/09/07 09:45:57;;;;;;;;;;;;;;;32.89;81.89;101232.88;5312562;28;20001;-79
2022/09/07 09:48:30;;;;;;;;;;;;;;;33.24;81.91;101228.31;5325202;27;19959;-79
2022/09/07 09:51:03;;;;;;;;;;;;;;;32.88;71.09;101234.00;5326276;27;19920;-79
2022/09/07 09:53:39;;;;;;;;;;;;;;;33.15;74.36;101226.16;5326845;27;19959;-79
2022/09/07 09:56:10;;;;;;;;;;;;;;;32.18;66.93;101232.78;5326145;27;19912;-79
2022/09/07 09:58:44;;;;;;;;;;;;;;;32.21;74.10;101235.00;5326353;27;19912;-79
2022/09/07 10:01:23;;;;;;;;;;;;;;;30.66;95.26;101227.53;5325520;27;19924;-78
2022/09/07 10:03:54;;;;;;;;;;;;;;;29.84;100.00;101232.47;5325821;27;20007;-78
2022/09/07 10:06:25;;;;;;;;;;;;;;;29.87;100.00;101228.34;5326328;27;20006;-79
2022/09/07 10:08:57;;;;;;;;;;;;;;;31.19;95.34;101221.13;5310447;27;19912;-78
2022/09/07 10:11:41;;;;;;;;;;;;;;;32.52;80.39;101217.53;5304469;28;20003;-78
2022/09/07 10:14:24;;;;;;;;;;;;;;;33.95;71.70;101215.06;5304908;28;20003;-78
2022/09/07 10:16:56;;;;;;;;;;;;;;;34.53;62.94;101217.78;5304803;28;19951;-78
2022/09/07 10:19:35;;;;;;;;;;;;;;;35.64;64.69;101212.94;5304995;28;19920;-78
2022/09/07 10:22:23;;;;;;;;;;;;;;;36.00;54.13;101204.00;5316008;27;19970;-78
2022/09/07 10:24:55;;;;;;;;;;;;;;;36.81;58.82;101199.94;5323916;27;19920;-78
2022/09/07 10:27:37;;;;;;;;;;;;;;;36.73;53.06;101209.84;5325730;27;19917;-78
2022/09/07 10:30:12;;;;;;;;;;;;;;;36.76;52.54;101212.00;5323757;28;19927;-79
2022/09/07 10:33:02;;;;;;;;;;;;;;;37.63;46.78;101203.59;5324098;27;19923;-79
2022/09/07 10:35:36;;;;;;;;;;;;;;;38.99;51.87;101201.22;5325898;27;19959;-79
2022/09/07 10:38:18;;;;;;;;;;;;;;;37.95;48.33;101198.91;5329089;27;19927;-79
2022/09/07 10:40:57;;;;;;;;;;;;;;;38.00;51.70;101204.34;5329386;27;19923;-79
2022/09/07 10:43:42;;;;;;;;;;;;;;;36.10;43.16;101212.16;5327410;28;20498;-79
2022/09/07 10:46:19;;;;;;;;;;;;;;;34.61;52.71;101197.75;5329290;27;19920;-79
2022/09/07 10:49:09;;;;;;;;;;;;;;;35.55;49.14;101201.69;5329127;27;19912;-79
2022/09/07 10:51:55;;;;;;;;;;;;;;;35.54;47.91;101183.44;5329239;28;19916;-79
2022/09/07 10:54:49;;;;;;;;;;;;;;;35.97;48.46;101194.34;5328715;27;19924;-79
2022/09/07 10:57:39;;;;;;;;;;;;;;;32.90;53.88;101184.81;5321750;27;19919;-78
2022/09/07 11:00:13;;;;;;;;;;;;;;;33.01;72.01;101185.59;5307611;28;19916;-79
2022/09/07 11:03:03;;;;;;;;;;;;;;;32.70;55.23;101186.59;5307674;28;19995;-79
2022/09/07 11:05:34;;;;;;;;;;;;;;;30.21;75.40;101186.78;5320787;27;20383;-78
2022/09/07 11:08:08;;;;;;;;;;;;;;;29.12;80.62;101181.44;5328652;27;19934;-78
2022/09/07 11:10:48;;;;;;;;;;;;;;;30.81;85.93;101187.41;5330075;27;20006;-78
2022/09/07 11:13:23;;;;;;;;;;;;;;;33.48;58.09;101186.94;5330204;27;19919;-78
2022/09/07 11:16:03;;;;;;;;;;;;;;;33.40;53.53;101190.31;5328999;27;19916;-79
2022/09/07 11:18:38;;;;;;;;;;;;;;;33.89;62.13;101176.38;5328825;27;19912;-79
2022/09/07 11:21:12;;;;;;;;;;;;;;;34.93;57.08;101173.28;5328326;27;19980;-79
2022/09/07 11:23:45;;;;;;;;;;;;;;;35.46;52.89;101183.31;5329021;27;19916;-79
2022/09/07 11:26:16;;;;;;;;;;;;;;;35.88;52.10;101173.16;5328056;27;20018;-78
2022/09/07 11:28:54;;;;;;;;;;;;;;;35.97;49.12;101171.31;5328951;27;20019;-79
2022/09/07 11:31:29;;;;;;;;;;;;;;;36.47;44.63;101174.25;5327035;28;19912;-79
2022/09/07 11:34:00;;;;;;;;;;;;;;;36.84;42.99;101180.69;5315120;27;19920;-79
2022/09/07 11:36:35;;;;;;;;;;;;;;;36.94;41.27;101174.09;5327885;27;20384;-79
2022/09/07 11:39:15;;;;;;;;;;;;;;;36.95;40.88;101180.47;5328488;27;19951;-79
2022/09/07 11:41:56;;;;;;;;;;;;;;;33.54;43.62;101175.56;5326769;28;19985;-79
2022/09/07 11:44:36;;;;;;;;;;;;;;;33.33;55.79;101174.09;5328467;27;19926;-79
2022/09/07 11:47:17;;;;;;;;;;;;;;;35.28;48.77;101165.56;5326382;27;19912;-79
2022/09/07 11:49:51;;;;;;;;;;;;;;;37.15;41.94;101173.59;5326461;27;19977;-79
2022/09/07 11:52:22;;;;;;;;;;;;;;;36.78;39.91;101170.81;5328628;27;20324;-79
2022/09/07 11:54:55;;;;;;;;;;;;;;;37.37;38.97;101164.47;5328633;27;19912;-79
2022/09/07 11:57:26;;;;;;;;;;;;;;;36.54;37.91;101159.94;5328497;27;19977;-79
2022/09/07 12:00:15;;;;;;;;;;;;;;;35.77;40.21;101172.53;5328281;27;20361;-79
2022/09/07 12:03:10;;;;;;;;;;;;;;;35.20;41.25;101173.44;5328283;27;20030;-79
2022/09/07 12:06:00;;;;;;;;;;;;;;;35.66;40.77;101160.78;5314382;28;19920;-80
2022/09/07 12:08:46;;;;;;;;;;;;;;;35.95;44.09;101163.28;5327338;28;19914;-79
2022/09/07 12:11:47;;;;;;;;;;;;;;;35.49;38.73;101154.97;5328263;27;19916;-80
2022/09/07 12:14:33;;;;;;;;;;;;;;;35.36;41.97;101149.06;5325273;27;19917;-79
2022/09/07 12:17:14;;;;;;;;;;;;;;;34.80;45.80;101139.66;5328261;27;19963;-79
2022/09/07 12:19:45;;;;;;;;;;;;;;;34.34;42.86;101156.00;5328051;27;19915;-80
2022/09/07 12:22:20;;;;;;;;;;;;;;;35.13;40.72;101147.19;5322767;27;20395;-80
2022/09/07 12:24:52;;;;;;;;;;;;;;;35.26;35.66;101142.84;5306216;28;19917;-80
2022/09/07 12:27:24;;;;;;;;;;;;;;;35.85;39.91;101137.69;5306448;28;19959;-79
2022/09/07 12:30:01;;;;;;;;;;;;;;;36.02;37.19;101143.47;5306742;28;20001;-80
2022/09/07 12:32:47;;;;;;;;;;;;;;;36.72;41.78;101142.34;5306464;28;20305;-80
2022/09/07 12:35:28;;;;;;;;;;;;;;;36.19;37.68;101130.91;5314331;27;20014;-80
2022/09/07 12:38:05;;;;;;;;;;;;;;;35.96;37.15;101148.31;5323779;27;19962;-79
2022/09/07 12:40:36;;;;;;;;;;;;;;;36.69;36.78;101131.84;5343147;27;19912;-79
2022/09/07 12:43:13;;;;;;;;;;;;;;;37.47;34.21;101128.88;5327729;27;19928;-79
2022/09/07 12:45:45;;;;;;;;;;;;;;;37.33;37.58;101119.78;5327259;27;19916;-79
2022/09/07 12:48:16;;;;;;;;;;;;;;;36.65;33.55;101132.75;5343972;27;19962;-79
2022/09/07 12:51:05;;;;;;;;;;;;;;;36.90;33.83;101123.84;5327023;27;19920;-79
2022/09/07 12:53:55;;;;;;;;;;;;;;;36.85;32.87;101117.59;5327174;28;19961;-79
2022/09/07 12:56:49;;;;;;;;;;;;;;;36.70;35.35;101116.81;5326924;28;19938;-79
2022/09/07 12:59:38;;;;;;;;;;;;;;;37.15;33.75;101113.28;5304840;28;19920;-80
2022/09/07 13:02:12;;;;;;;;;;;;;;;35.66;37.38;101115.53;5305707;28;19982;-79
2022/09/07 13:05:10;;;;;;;;;;;;;;;35.72;36.14;101115.19;5312751;27;19935;-79
2022/09/07 13:08:00;;;;;;;;;;;;;;;35.97;34.31;101111.06;5327105;27;19961;-79
2022/09/07 13:10:35;;;;;;;;;;;;;;;34.53;36.78;101100.66;5326641;28;19923;-79